Hauptseite
METAR-TAF:

METAR-TAF

Flughäfen :

Flugplatz Laupheim

Laupheim, Deutschland

Breite: 48-13N, Länge: 009-55E, Höhe: 538 m

Beobachtung

Neuester Wetterbericht von vor 51 Minuten, um 23:20 UTC
Wind 1 kt aus Süd
Temperatur 2°C
Luftfeuchtigkeit 93%
Luftdruck 1003 hPa
Sichtweite 10 km oder mehr
Durchbrochene Bewölkung in der Höhe von 7000 ft
Durchbrochene Bewölkung in der Höhe von 13000 ft

METAR: ETHL 122320Z 18001KT 9999 BKN070 BKN130 02/01 Q1003 BLU

Zeit: 01:11 (00:11 UTC)

Prognose

Neuester Wetterbericht von vor 4 Stunden und 8 Minuten, um 20:03 UTC
Gültige Prognose vom 12 um 20 UTC bis 13 um 03 UTC
Wind 10 kt aus Südwest
Sichtweite: 2015 m
Leicht bewölkt in der Höhe von 2000 ft
Durchbrochene Bewölkung in der Höhe von 25000 ft

TAF: ETHL 122003Z 1220/1303 23010KT 9999 NSW FEW020 BKN250 CANCEL 2015

Wetterbeobachtungen und Prognosen von mehr als 4000 Flughäfen (METAR und TAF Bericht).

Die verfügbaren Stationen werden durch gelbe und rote Markierungen auf der Karte dargestellt.

Führen Sie die Maus auf sie, um den Namen der Station zu sehen.

Darauf klicken, um die Beobachtung von Wetterbeobachtungen und Prognosen zu sehen.

Um die Karte zu ändern : klicken Sie auf den grünen Tasten mit einem schwarzen Kreuz Zum Vergrößern, auf den grünen Button mit einem Gedankenstrich zu verkleinern, oder auf die grünen Pfeile für benachbarte Karten.


METAR-TAF: